sensor_id;sensor_type;location;lat;lon;timestamp;P1;durP1;ratioP1;P2;durP2;ratioP2
57828;SDS011;43657;52.698;6.314;2022-11-27T00:01:18;24.42;;;10.75;;
57828;SDS011;43657;52.698;6.314;2022-11-27T00:03:45;25.05;;;11.05;;
57828;SDS011;43657;52.698;6.314;2022-11-27T00:06:12;23.00;;;10.85;;
57828;SDS011;43657;52.698;6.314;2022-11-27T00:08:40;17.45;;;10.75;;
57828;SDS011;43657;52.698;6.314;2022-11-27T00:11:13;22.13;;;10.25;;
57828;SDS011;43657;52.698;6.314;2022-11-27T00:13:40;26.42;;;11.18;;
57828;SDS011;43657;52.698;6.314;2022-11-27T00:16:06;23.35;;;10.80;;
57828;SDS011;43657;52.698;6.314;2022-11-27T00:18:33;21.35;;;10.80;;
57828;SDS011;43657;52.698;6.314;2022-11-27T00:21:06;17.08;;;10.00;;
57828;SDS011;43657;52.698;6.314;2022-11-27T00:23:37;20.15;;;10.88;;
57828;SDS011;43657;52.698;6.314;2022-11-27T00:26:03;19.30;;;10.20;;
57828;SDS011;43657;52.698;6.314;2022-11-27T00:28:30;22.20;;;10.68;;
57828;SDS011;43657;52.698;6.314;2022-11-27T00:30:59;19.50;;;10.77;;
57828;SDS011;43657;52.698;6.314;2022-11-27T00:33:28;27.83;;;11.25;;
57828;SDS011;43657;52.698;6.314;2022-11-27T00:35:54;18.15;;;11.30;;
57828;SDS011;43657;52.698;6.314;2022-11-27T00:38:19;18.42;;;10.50;;
57828;SDS011;43657;52.698;6.314;2022-11-27T00:40:46;17.45;;;10.02;;
57828;SDS011;43657;52.698;6.314;2022-11-27T00:43:12;16.95;;;10.27;;
57828;SDS011;43657;52.698;6.314;2022-11-27T00:45:37;18.85;;;10.73;;
57828;SDS011;43657;52.698;6.314;2022-11-27T00:48:03;19.67;;;9.82;;
57828;SDS011;43657;52.698;6.314;2022-11-27T00:50:29;20.73;;;10.40;;
57828;SDS011;43657;52.698;6.314;2022-11-27T00:52:59;19.75;;;10.52;;
57828;SDS011;43657;52.698;6.314;2022-11-27T00:55:25;19.48;;;10.20;;
57828;SDS011;43657;52.698;6.314;2022-11-27T00:57:51;18.92;;;10.40;;
57828;SDS011;43657;52.698;6.314;2022-11-27T01:00:17;20.70;;;9.98;;
57828;SDS011;43657;52.698;6.314;2022-11-27T01:02:43;18.63;;;10.35;;
57828;SDS011;43657;52.698;6.314;2022-11-27T01:05:09;14.18;;;9.88;;
57828;SDS011;43657;52.698;6.314;2022-11-27T01:07:34;25.50;;;10.95;;
57828;SDS011;43657;52.698;6.314;2022-11-27T01:10:00;21.52;;;9.90;;
57828;SDS011;43657;52.698;6.314;2022-11-27T01:12:26;21.60;;;10.30;;
57828;SDS011;43657;52.698;6.314;2022-11-27T01:14:51;17.42;;;9.88;;
57828;SDS011;43657;52.698;6.314;2022-11-27T01:17:17;19.73;;;9.95;;
57828;SDS011;43657;52.698;6.314;2022-11-27T01:19:43;19.00;;;10.30;;
57828;SDS011;43657;52.698;6.314;2022-11-27T01:22:08;19.55;;;9.55;;
57828;SDS011;43657;52.698;6.314;2022-11-27T01:24:34;21.23;;;10.40;;
57828;SDS011;43657;52.698;6.314;2022-11-27T01:27:00;17.25;;;9.57;;
57828;SDS011;43657;52.698;6.314;2022-11-27T01:29:25;16.52;;;9.55;;
57828;SDS011;43657;52.698;6.314;2022-11-27T01:31:51;18.02;;;10.25;;
57828;SDS011;43657;52.698;6.314;2022-11-27T01:34:17;20.98;;;10.65;;
57828;SDS011;43657;52.698;6.314;2022-11-27T01:36:43;20.58;;;10.00;;
57828;SDS011;43657;52.698;6.314;2022-11-27T01:39:13;22.05;;;10.57;;
57828;SDS011;43657;52.698;6.314;2022-11-27T01:41:40;16.65;;;10.38;;
57828;SDS011;43657;52.698;6.314;2022-11-27T01:46:47;24.98;;;11.68;;
57828;SDS011;43657;52.698;6.314;2022-11-27T01:49:37;19.05;;;11.32;;
57828;SDS011;43657;52.698;6.314;2022-11-27T01:54:55;19.33;;;11.35;;
57828;SDS011;43657;52.698;6.314;2022-11-27T01:57:26;21.25;;;11.30;;
57828;SDS011;43657;52.698;6.314;2022-11-27T01:59:55;23.17;;;12.20;;
57828;SDS011;43657;52.698;6.314;2022-11-27T02:02:23;22.95;;;11.75;;
57828;SDS011;43657;52.698;6.314;2022-11-27T02:04:49;19.08;;;12.13;;
57828;SDS011;43657;52.698;6.314;2022-11-27T02:07:16;18.75;;;12.07;;
57828;SDS011;43657;52.698;6.314;2022-11-27T02:09:42;22.88;;;12.63;;
57828;SDS011;43657;52.698;6.314;2022-11-27T02:12:19;24.20;;;11.95;;
57828;SDS011;43657;52.698;6.314;2022-11-27T02:15:03;22.98;;;13.10;;
57828;SDS011;43657;52.698;6.314;2022-11-27T02:17:40;19.83;;;11.80;;
57828;SDS011;43657;52.698;6.314;2022-11-27T02:26:06;23.80;;;13.10;;
57828;SDS011;43657;52.698;6.314;2022-11-27T02:31:21;21.13;;;12.23;;
57828;SDS011;43657;52.698;6.314;2022-11-27T02:33:57;19.13;;;12.30;;
57828;SDS011;43657;52.698;6.314;2022-11-27T02:36:40;20.02;;;11.65;;
57828;SDS011;43657;52.698;6.314;2022-11-27T02:41:42;24.00;;;12.05;;
57828;SDS011;43657;52.698;6.314;2022-11-27T02:44:41;20.60;;;11.63;;
57828;SDS011;43657;52.698;6.314;2022-11-27T02:47:10;24.80;;;11.90;;
57828;SDS011;43657;52.698;6.314;2022-11-27T02:49:37;21.27;;;11.60;;
57828;SDS011;43657;52.698;6.314;2022-11-27T02:52:05;19.35;;;11.82;;
57828;SDS011;43657;52.698;6.314;2022-11-27T02:54:31;21.73;;;11.05;;
57828;SDS011;43657;52.698;6.314;2022-11-27T02:56:59;20.55;;;11.10;;
57828;SDS011;43657;52.698;6.314;2022-11-27T02:59:30;17.40;;;11.18;;
57828;SDS011;43657;52.698;6.314;2022-11-27T03:01:59;18.40;;;11.02;;
57828;SDS011;43657;52.698;6.314;2022-11-27T03:04:31;19.73;;;11.35;;
57828;SDS011;43657;52.698;6.314;2022-11-27T03:07:01;20.42;;;10.93;;
57828;SDS011;43657;52.698;6.314;2022-11-27T03:09:35;24.30;;;11.38;;
57828;SDS011;43657;52.698;6.314;2022-11-27T03:14:30;21.10;;;10.32;;
57828;SDS011;43657;52.698;6.314;2022-11-27T03:19:42;17.05;;;10.15;;
57828;SDS011;43657;52.698;6.314;2022-11-27T03:22:14;16.52;;;10.70;;
57828;SDS011;43657;52.698;6.314;2022-11-27T03:24:41;21.55;;;10.85;;
57828;SDS011;43657;52.698;6.314;2022-11-27T03:27:07;22.88;;;10.82;;
57828;SDS011;43657;52.698;6.314;2022-11-27T03:29:48;21.83;;;10.23;;
57828;SDS011;43657;52.698;6.314;2022-11-27T03:32:17;15.10;;;10.18;;
57828;SDS011;43657;52.698;6.314;2022-11-27T03:34:43;19.13;;;10.10;;
57828;SDS011;43657;52.698;6.314;2022-11-27T03:37:09;22.27;;;10.55;;
57828;SDS011;43657;52.698;6.314;2022-11-27T03:39:35;18.38;;;10.05;;
57828;SDS011;43657;52.698;6.314;2022-11-27T03:58:07;18.80;;;9.35;;
57828;SDS011;43657;52.698;6.314;2022-11-27T04:00:40;12.55;;;8.80;;
57828;SDS011;43657;52.698;6.314;2022-11-27T04:03:09;17.92;;;9.50;;
57828;SDS011;43657;52.698;6.314;2022-11-27T04:05:36;16.88;;;9.15;;
57828;SDS011;43657;52.698;6.314;2022-11-27T04:08:02;11.75;;;7.68;;
57828;SDS011;43657;52.698;6.314;2022-11-27T04:10:28;14.98;;;7.75;;
57828;SDS011;43657;52.698;6.314;2022-11-27T04:12:54;15.45;;;7.85;;
57828;SDS011;43657;52.698;6.314;2022-11-27T04:15:20;16.80;;;8.35;;
57828;SDS011;43657;52.698;6.314;2022-11-27T04:17:46;16.30;;;8.60;;
57828;SDS011;43657;52.698;6.314;2022-11-27T04:20:12;14.60;;;8.30;;
57828;SDS011;43657;52.698;6.314;2022-11-27T04:22:38;14.13;;;7.97;;
57828;SDS011;43657;52.698;6.314;2022-11-27T04:25:04;17.13;;;8.65;;
57828;SDS011;43657;52.698;6.314;2022-11-27T04:27:30;16.85;;;7.97;;
57828;SDS011;43657;52.698;6.314;2022-11-27T04:29:57;14.38;;;7.40;;
57828;SDS011;43657;52.698;6.314;2022-11-27T04:32:23;13.75;;;7.57;;
57828;SDS011;43657;52.698;6.314;2022-11-27T04:34:48;20.00;;;8.27;;
57828;SDS011;43657;52.698;6.314;2022-11-27T04:37:14;14.32;;;7.68;;
57828;SDS011;43657;52.698;6.314;2022-11-27T04:39:40;14.77;;;7.85;;
57828;SDS011;43657;52.698;6.314;2022-11-27T04:42:06;17.65;;;7.95;;
57828;SDS011;43657;52.698;6.314;2022-11-27T04:44:31;16.20;;;7.90;;
57828;SDS011;43657;52.698;6.314;2022-11-27T04:46:57;14.02;;;6.75;;
57828;SDS011;43657;52.698;6.314;2022-11-27T04:49:23;15.93;;;7.75;;
57828;SDS011;43657;52.698;6.314;2022-11-27T04:51:49;14.98;;;6.97;;
57828;SDS011;43657;52.698;6.314;2022-11-27T04:54:15;14.10;;;6.60;;
57828;SDS011;43657;52.698;6.314;2022-11-27T04:56:41;13.80;;;6.65;;
57828;SDS011;43657;52.698;6.314;2022-11-27T04:59:07;14.90;;;6.72;;
57828;SDS011;43657;52.698;6.314;2022-11-27T05:01:34;12.00;;;6.72;;
57828;SDS011;43657;52.698;6.314;2022-11-27T05:04:00;15.63;;;6.95;;
57828;SDS011;43657;52.698;6.314;2022-11-27T05:06:26;11.88;;;6.28;;
57828;SDS011;43657;52.698;6.314;2022-11-27T05:08:52;14.73;;;6.50;;
57828;SDS011;43657;52.698;6.314;2022-11-27T05:11:24;13.55;;;6.50;;
57828;SDS011;43657;52.698;6.314;2022-11-27T05:13:50;12.00;;;7.07;;
57828;SDS011;43657;52.698;6.314;2022-11-27T05:16:36;14.95;;;6.85;;
57828;SDS011;43657;52.698;6.314;2022-11-27T05:19:01;14.57;;;6.43;;
57828;SDS011;43657;52.698;6.314;2022-11-27T05:21:27;12.95;;;6.22;;
57828;SDS011;43657;52.698;6.314;2022-11-27T05:23:54;12.55;;;6.40;;
57828;SDS011;43657;52.698;6.314;2022-11-27T05:26:20;13.70;;;7.07;;
57828;SDS011;43657;52.698;6.314;2022-11-27T05:28:46;12.48;;;6.80;;
57828;SDS011;43657;52.698;6.314;2022-11-27T05:31:11;11.48;;;6.65;;
57828;SDS011;43657;52.698;6.314;2022-11-27T05:33:37;15.50;;;7.00;;
57828;SDS011;43657;52.698;6.314;2022-11-27T05:36:03;15.02;;;7.35;;
57828;SDS011;43657;52.698;6.314;2022-11-27T05:38:29;13.02;;;6.60;;
57828;SDS011;43657;52.698;6.314;2022-11-27T05:40:54;12.10;;;6.40;;
57828;SDS011;43657;52.698;6.314;2022-11-27T05:43:21;14.52;;;7.03;;
57828;SDS011;43657;52.698;6.314;2022-11-27T05:45:46;14.38;;;7.35;;
57828;SDS011;43657;52.698;6.314;2022-11-27T05:48:12;12.65;;;7.05;;
57828;SDS011;43657;52.698;6.314;2022-11-27T05:50:38;14.60;;;7.35;;
57828;SDS011;43657;52.698;6.314;2022-11-27T05:53:04;15.30;;;7.43;;
57828;SDS011;43657;52.698;6.314;2022-11-27T05:55:30;15.18;;;7.63;;
57828;SDS011;43657;52.698;6.314;2022-11-27T05:57:56;12.57;;;6.68;;
57828;SDS011;43657;52.698;6.314;2022-11-27T06:00:22;15.55;;;7.68;;
57828;SDS011;43657;52.698;6.314;2022-11-27T06:02:51;19.40;;;7.90;;
57828;SDS011;43657;52.698;6.314;2022-11-27T06:05:16;12.57;;;7.28;;
57828;SDS011;43657;52.698;6.314;2022-11-27T06:07:42;13.98;;;7.00;;
57828;SDS011;43657;52.698;6.314;2022-11-27T06:10:08;15.57;;;8.02;;
57828;SDS011;43657;52.698;6.314;2022-11-27T06:12:34;15.38;;;7.90;;
57828;SDS011;43657;52.698;6.314;2022-11-27T06:15:00;11.88;;;7.00;;
57828;SDS011;43657;52.698;6.314;2022-11-27T06:17:26;11.93;;;7.55;;
57828;SDS011;43657;52.698;6.314;2022-11-27T06:19:52;13.18;;;7.40;;
57828;SDS011;43657;52.698;6.314;2022-11-27T06:22:18;13.77;;;7.70;;
57828;SDS011;43657;52.698;6.314;2022-11-27T06:24:44;12.80;;;7.65;;
57828;SDS011;43657;52.698;6.314;2022-11-27T06:27:10;13.63;;;8.02;;
57828;SDS011;43657;52.698;6.314;2022-11-27T06:29:36;12.85;;;8.00;;
57828;SDS011;43657;52.698;6.314;2022-11-27T06:32:02;13.40;;;7.28;;
57828;SDS011;43657;52.698;6.314;2022-11-27T06:34:29;13.98;;;7.95;;
57828;SDS011;43657;52.698;6.314;2022-11-27T06:36:54;11.25;;;7.07;;
57828;SDS011;43657;52.698;6.314;2022-11-27T06:39:20;13.35;;;8.02;;
57828;SDS011;43657;52.698;6.314;2022-11-27T06:41:46;12.85;;;7.53;;
57828;SDS011;43657;52.698;6.314;2022-11-27T06:44:12;14.40;;;7.53;;
57828;SDS011;43657;52.698;6.314;2022-11-27T06:46:41;12.93;;;8.43;;
57828;SDS011;43657;52.698;6.314;2022-11-27T06:49:07;16.80;;;7.78;;
57828;SDS011;43657;52.698;6.314;2022-11-27T06:51:33;15.77;;;8.48;;
57828;SDS011;43657;52.698;6.314;2022-11-27T06:53:59;12.48;;;7.97;;
57828;SDS011;43657;52.698;6.314;2022-11-27T06:56:26;14.00;;;7.63;;
57828;SDS011;43657;52.698;6.314;2022-11-27T06:58:54;17.15;;;8.30;;
57828;SDS011;43657;52.698;6.314;2022-11-27T07:01:21;13.85;;;8.07;;
57828;SDS011;43657;52.698;6.314;2022-11-27T07:03:50;15.82;;;8.57;;
57828;SDS011;43657;52.698;6.314;2022-11-27T07:06:20;16.90;;;8.48;;
57828;SDS011;43657;52.698;6.314;2022-11-27T07:08:48;13.10;;;8.38;;
57828;SDS011;43657;52.698;6.314;2022-11-27T07:11:15;15.25;;;8.93;;
57828;SDS011;43657;52.698;6.314;2022-11-27T07:13:46;14.13;;;8.38;;
57828;SDS011;43657;52.698;6.314;2022-11-27T07:16:13;13.68;;;8.30;;
57828;SDS011;43657;52.698;6.314;2022-11-27T07:18:42;14.23;;;8.80;;
57828;SDS011;43657;52.698;6.314;2022-11-27T07:21:09;13.18;;;8.38;;
57828;SDS011;43657;52.698;6.314;2022-11-27T07:23:35;13.00;;;8.60;;
57828;SDS011;43657;52.698;6.314;2022-11-27T07:26:06;16.52;;;9.07;;
57828;SDS011;43657;52.698;6.314;2022-11-27T07:28:33;14.68;;;8.40;;
57828;SDS011;43657;52.698;6.314;2022-11-27T07:31:00;15.20;;;9.20;;
57828;SDS011;43657;52.698;6.314;2022-11-27T07:33:26;14.15;;;8.68;;
57828;SDS011;43657;52.698;6.314;2022-11-27T07:36:10;18.27;;;9.00;;
57828;SDS011;43657;52.698;6.314;2022-11-27T07:38:41;17.70;;;9.05;;
57828;SDS011;43657;52.698;6.314;2022-11-27T07:41:08;16.27;;;9.27;;
57828;SDS011;43657;52.698;6.314;2022-11-27T07:43:34;15.30;;;9.20;;
57828;SDS011;43657;52.698;6.314;2022-11-27T07:46:04;16.52;;;8.68;;
57828;SDS011;43657;52.698;6.314;2022-11-27T07:48:38;18.95;;;9.60;;
57828;SDS011;43657;52.698;6.314;2022-11-27T07:51:04;16.52;;;9.18;;
57828;SDS011;43657;52.698;6.314;2022-11-27T07:53:33;16.20;;;9.30;;
57828;SDS011;43657;52.698;6.314;2022-11-27T07:56:00;15.80;;;9.57;;
57828;SDS011;43657;52.698;6.314;2022-11-27T07:58:26;18.83;;;9.30;;
57828;SDS011;43657;52.698;6.314;2022-11-27T08:00:53;14.32;;;8.90;;
57828;SDS011;43657;52.698;6.314;2022-11-27T08:03:20;13.57;;;8.75;;
57828;SDS011;43657;52.698;6.314;2022-11-27T08:05:46;13.95;;;8.60;;
57828;SDS011;43657;52.698;6.314;2022-11-27T08:08:12;14.95;;;8.27;;
57828;SDS011;43657;52.698;6.314;2022-11-27T08:10:41;13.13;;;8.80;;
57828;SDS011;43657;52.698;6.314;2022-11-27T08:13:07;14.75;;;8.93;;
57828;SDS011;43657;52.698;6.314;2022-11-27T08:15:34;14.52;;;9.77;;
57828;SDS011;43657;52.698;6.314;2022-11-27T08:18:01;17.80;;;10.20;;
57828;SDS011;43657;52.698;6.314;2022-11-27T08:20:27;15.55;;;9.65;;
57828;SDS011;43657;52.698;6.314;2022-11-27T08:22:53;15.70;;;9.68;;
57828;SDS011;43657;52.698;6.314;2022-11-27T08:25:20;15.95;;;10.23;;
57828;SDS011;43657;52.698;6.314;2022-11-27T08:27:46;16.40;;;9.80;;
57828;SDS011;43657;52.698;6.314;2022-11-27T08:30:15;13.57;;;9.15;;
57828;SDS011;43657;52.698;6.314;2022-11-27T08:32:41;15.32;;;9.65;;
57828;SDS011;43657;52.698;6.314;2022-11-27T08:35:08;14.93;;;9.68;;
57828;SDS011;43657;52.698;6.314;2022-11-27T08:37:34;15.10;;;9.68;;
57828;SDS011;43657;52.698;6.314;2022-11-27T08:40:00;15.10;;;9.57;;
57828;SDS011;43657;52.698;6.314;2022-11-27T08:42:27;18.10;;;9.63;;
57828;SDS011;43657;52.698;6.314;2022-11-27T08:44:54;16.60;;;10.63;;
57828;SDS011;43657;52.698;6.314;2022-11-27T08:47:19;14.48;;;9.60;;
57828;SDS011;43657;52.698;6.314;2022-11-27T08:49:53;20.77;;;10.00;;
57828;SDS011;43657;52.698;6.314;2022-11-27T08:52:18;19.52;;;10.70;;
57828;SDS011;43657;52.698;6.314;2022-11-27T08:54:46;16.17;;;9.90;;
57828;SDS011;43657;52.698;6.314;2022-11-27T08:57:15;16.55;;;10.07;;
57828;SDS011;43657;52.698;6.314;2022-11-27T08:59:41;18.90;;;10.68;;
57828;SDS011;43657;52.698;6.314;2022-11-27T09:02:09;15.00;;;9.80;;
57828;SDS011;43657;52.698;6.314;2022-11-27T09:04:37;16.20;;;10.95;;
57828;SDS011;43657;52.698;6.314;2022-11-27T09:07:03;19.38;;;10.57;;
57828;SDS011;43657;52.698;6.314;2022-11-27T09:09:34;16.40;;;10.02;;
57828;SDS011;43657;52.698;6.314;2022-11-27T09:12:00;16.23;;;10.32;;
57828;SDS011;43657;52.698;6.314;2022-11-27T09:14:30;17.73;;;10.35;;
57828;SDS011;43657;52.698;6.314;2022-11-27T09:16:55;19.60;;;10.85;;
57828;SDS011;43657;52.698;6.314;2022-11-27T09:19:21;24.33;;;12.52;;
57828;SDS011;43657;52.698;6.314;2022-11-27T09:21:48;18.70;;;12.15;;
57828;SDS011;43657;52.698;6.314;2022-11-27T09:24:14;21.38;;;10.98;;
57828;SDS011;43657;52.698;6.314;2022-11-27T09:26:40;18.80;;;10.70;;
57828;SDS011;43657;52.698;6.314;2022-11-27T09:29:09;22.13;;;11.63;;
57828;SDS011;43657;52.698;6.314;2022-11-27T09:31:38;24.52;;;11.68;;
57828;SDS011;43657;52.698;6.314;2022-11-27T09:34:05;21.58;;;11.20;;
57828;SDS011;43657;52.698;6.314;2022-11-27T09:36:32;21.00;;;11.80;;
57828;SDS011;43657;52.698;6.314;2022-11-27T09:38:59;25.85;;;12.07;;
57828;SDS011;43657;52.698;6.314;2022-11-27T09:44:27;21.60;;;11.13;;
57828;SDS011;43657;52.698;6.314;2022-11-27T09:50:00;22.35;;;11.85;;
57828;SDS011;43657;52.698;6.314;2022-11-27T09:55:51;20.55;;;11.40;;
57828;SDS011;43657;52.698;6.314;2022-11-27T09:58:01;21.58;;;12.43;;
57828;SDS011;43657;52.698;6.314;2022-11-27T10:00:31;19.23;;;12.02;;
57828;SDS011;43657;52.698;6.314;2022-11-27T10:02:58;19.65;;;12.10;;
57828;SDS011;43657;52.698;6.314;2022-11-27T10:05:25;22.48;;;12.20;;
57828;SDS011;43657;52.698;6.314;2022-11-27T10:11:05;22.38;;;13.27;;
57828;SDS011;43657;52.698;6.314;2022-11-27T10:17:06;21.17;;;12.80;;
57828;SDS011;43657;52.698;6.314;2022-11-27T10:22:25;23.90;;;12.68;;
57828;SDS011;43657;52.698;6.314;2022-11-27T10:25:33;23.52;;;13.60;;
57828;SDS011;43657;52.698;6.314;2022-11-27T10:33:35;19.38;;;12.35;;
57828;SDS011;43657;52.698;6.314;2022-11-27T10:39:29;20.88;;;13.40;;
57828;SDS011;43657;52.698;6.314;2022-11-27T10:44:57;23.20;;;13.45;;
57828;SDS011;43657;52.698;6.314;2022-11-27T10:47:24;23.42;;;12.93;;
57828;SDS011;43657;52.698;6.314;2022-11-27T10:49:52;18.27;;;12.63;;
57828;SDS011;43657;52.698;6.314;2022-11-27T10:52:24;24.95;;;13.02;;
57828;SDS011;43657;52.698;6.314;2022-11-27T10:55:00;20.52;;;12.00;;
57828;SDS011;43657;52.698;6.314;2022-11-27T11:00:22;20.20;;;12.23;;
57828;SDS011;43657;52.698;6.314;2022-11-27T11:02:59;23.90;;;12.80;;
57828;SDS011;43657;52.698;6.314;2022-11-27T11:05:30;19.90;;;12.90;;
57828;SDS011;43657;52.698;6.314;2022-11-27T11:09:17;18.65;;;11.23;;
57828;SDS011;43657;52.698;6.314;2022-11-27T11:13:30;22.25;;;13.10;;
57828;SDS011;43657;52.698;6.314;2022-11-27T11:16:32;21.95;;;12.88;;
57828;SDS011;43657;52.698;6.314;2022-11-27T11:20:42;22.65;;;12.98;;
57828;SDS011;43657;52.698;6.314;2022-11-27T11:22:48;20.52;;;12.40;;
57828;SDS011;43657;52.698;6.314;2022-11-27T11:25:18;21.10;;;12.27;;
57828;SDS011;43657;52.698;6.314;2022-11-27T11:27:46;18.50;;;11.95;;
57828;SDS011;43657;52.698;6.314;2022-11-27T11:30:25;17.23;;;11.27;;
57828;SDS011;43657;52.698;6.314;2022-11-27T11:32:59;18.70;;;12.32;;
57828;SDS011;43657;52.698;6.314;2022-11-27T11:35:28;21.17;;;12.90;;
57828;SDS011;43657;52.698;6.314;2022-11-27T11:37:58;21.75;;;12.23;;
57828;SDS011;43657;52.698;6.314;2022-11-27T11:40:34;21.55;;;12.45;;
57828;SDS011;43657;52.698;6.314;2022-11-27T11:43:06;19.33;;;11.93;;
57828;SDS011;43657;52.698;6.314;2022-11-27T11:45:50;20.42;;;12.75;;
57828;SDS011;43657;52.698;6.314;2022-11-27T11:55:26;20.48;;;13.38;;
57828;SDS011;43657;52.698;6.314;2022-11-27T12:00:56;21.75;;;13.55;;
57828;SDS011;43657;52.698;6.314;2022-11-27T12:14:51;19.55;;;12.23;;
57828;SDS011;43657;52.698;6.314;2022-11-27T12:17:45;22.83;;;14.38;;
57828;SDS011;43657;52.698;6.314;2022-11-27T12:29:02;22.30;;;12.95;;
57828;SDS011;43657;52.698;6.314;2022-11-27T12:37:28;19.58;;;13.13;;
57828;SDS011;43657;52.698;6.314;2022-11-27T12:41:01;20.90;;;13.05;;
57828;SDS011;43657;52.698;6.314;2022-11-27T12:43:25;18.88;;;13.02;;
57828;SDS011;43657;52.698;6.314;2022-11-27T12:46:13;20.08;;;12.77;;
57828;SDS011;43657;52.698;6.314;2022-11-27T12:49:23;20.30;;;13.60;;
57828;SDS011;43657;52.698;6.314;2022-11-27T12:51:56;24.00;;;13.05;;
57828;SDS011;43657;52.698;6.314;2022-11-27T12:54:31;20.38;;;13.55;;
57828;SDS011;43657;52.698;6.314;2022-11-27T12:57:13;18.17;;;12.18;;
57828;SDS011;43657;52.698;6.314;2022-11-27T12:59:51;17.02;;;12.57;;
57828;SDS011;43657;52.698;6.314;2022-11-27T13:05:14;28.05;;;17.35;;
57828;SDS011;43657;52.698;6.314;2022-11-27T13:13:13;18.33;;;12.35;;
57828;SDS011;43657;52.698;6.314;2022-11-27T13:15:51;20.30;;;12.35;;
57828;SDS011;43657;52.698;6.314;2022-11-27T13:21:08;17.45;;;11.43;;
57828;SDS011;43657;52.698;6.314;2022-11-27T13:23:42;15.27;;;10.63;;
57828;SDS011;43657;52.698;6.314;2022-11-27T13:26:15;16.73;;;11.20;;
57828;SDS011;43657;52.698;6.314;2022-11-27T13:28:46;18.58;;;10.70;;
57828;SDS011;43657;52.698;6.314;2022-11-27T13:31:29;18.02;;;10.07;;
57828;SDS011;43657;52.698;6.314;2022-11-27T13:34:02;16.20;;;10.90;;
57828;SDS011;43657;52.698;6.314;2022-11-27T13:36:38;13.68;;;10.15;;
57828;SDS011;43657;52.698;6.314;2022-11-27T13:39:17;14.88;;;10.75;;
57828;SDS011;43657;52.698;6.314;2022-11-27T13:42:24;14.75;;;9.65;;
57828;SDS011;43657;52.698;6.314;2022-11-27T13:45:06;15.43;;;9.90;;
57828;SDS011;43657;52.698;6.314;2022-11-27T13:47:39;14.05;;;10.30;;
57828;SDS011;43657;52.698;6.314;2022-11-27T13:52:33;14.55;;;9.75;;
57828;SDS011;43657;52.698;6.314;2022-11-27T13:55:01;14.43;;;9.25;;
57828;SDS011;43657;52.698;6.314;2022-11-27T13:57:30;13.25;;;9.70;;
57828;SDS011;43657;52.698;6.314;2022-11-27T14:05:09;14.85;;;9.85;;
57828;SDS011;43657;52.698;6.314;2022-11-27T14:07:50;15.20;;;10.32;;
57828;SDS011;43657;52.698;6.314;2022-11-27T14:10:21;13.32;;;9.82;;
57828;SDS011;43657;52.698;6.314;2022-11-27T14:12:57;14.65;;;9.63;;
57828;SDS011;43657;52.698;6.314;2022-11-27T14:15:29;13.32;;;10.48;;
57828;SDS011;43657;52.698;6.314;2022-11-27T14:18:13;13.00;;;10.00;;
57828;SDS011;43657;52.698;6.314;2022-11-27T14:20:48;12.52;;;9.30;;
57828;SDS011;43657;52.698;6.314;2022-11-27T14:23:32;16.08;;;10.57;;
57828;SDS011;43657;52.698;6.314;2022-11-27T14:26:01;12.50;;;9.05;;
57828;SDS011;43657;52.698;6.314;2022-11-27T14:28:30;13.15;;;9.38;;
57828;SDS011;43657;52.698;6.314;2022-11-27T14:30:59;14.27;;;9.43;;
57828;SDS011;43657;52.698;6.314;2022-11-27T14:33:28;13.38;;;10.10;;
57828;SDS011;43657;52.698;6.314;2022-11-27T14:35:59;14.27;;;10.90;;
57828;SDS011;43657;52.698;6.314;2022-11-27T14:38:27;14.98;;;9.68;;
57828;SDS011;43657;52.698;6.314;2022-11-27T14:41:05;12.93;;;9.45;;
57828;SDS011;43657;52.698;6.314;2022-11-27T14:43:39;14.20;;;9.27;;
57828;SDS011;43657;52.698;6.314;2022-11-27T14:46:05;17.20;;;11.52;;
57828;SDS011;43657;52.698;6.314;2022-11-27T14:48:47;18.05;;;11.02;;
57828;SDS011;43657;52.698;6.314;2022-11-27T14:51:20;13.70;;;9.68;;
57828;SDS011;43657;52.698;6.314;2022-11-27T14:53:48;13.95;;;10.63;;
57828;SDS011;43657;52.698;6.314;2022-11-27T14:56:18;13.88;;;10.30;;
57828;SDS011;43657;52.698;6.314;2022-11-27T14:58:47;15.05;;;10.50;;
57828;SDS011;43657;52.698;6.314;2022-11-27T15:01:23;15.00;;;10.80;;
57828;SDS011;43657;52.698;6.314;2022-11-27T15:03:56;13.98;;;10.20;;
57828;SDS011;43657;52.698;6.314;2022-11-27T15:06:23;14.60;;;10.57;;
57828;SDS011;43657;52.698;6.314;2022-11-27T15:08:52;16.83;;;10.90;;
57828;SDS011;43657;52.698;6.314;2022-11-27T15:11:18;11.98;;;10.07;;
57828;SDS011;43657;52.698;6.314;2022-11-27T15:13:53;13.85;;;9.52;;
57828;SDS011;43657;52.698;6.314;2022-11-27T15:16:23;13.38;;;9.63;;
57828;SDS011;43657;52.698;6.314;2022-11-27T15:18:58;12.85;;;9.43;;
57828;SDS011;43657;52.698;6.314;2022-11-27T15:21:27;14.38;;;9.52;;
57828;SDS011;43657;52.698;6.314;2022-11-27T15:23:55;12.98;;;9.63;;
57828;SDS011;43657;52.698;6.314;2022-11-27T15:26:37;15.98;;;9.43;;
57828;SDS011;43657;52.698;6.314;2022-11-27T15:32:20;15.25;;;9.70;;
57828;SDS011;43657;52.698;6.314;2022-11-27T15:34:48;13.18;;;9.77;;
57828;SDS011;43657;52.698;6.314;2022-11-27T15:37:28;14.40;;;10.02;;
57828;SDS011;43657;52.698;6.314;2022-11-27T15:39:58;15.52;;;9.60;;
57828;SDS011;43657;52.698;6.314;2022-11-27T15:42:25;12.98;;;10.23;;
57828;SDS011;43657;52.698;6.314;2022-11-27T15:44:52;13.88;;;9.77;;
57828;SDS011;43657;52.698;6.314;2022-11-27T15:47:24;12.88;;;8.70;;
57828;SDS011;43657;52.698;6.314;2022-11-27T15:49:56;12.70;;;8.93;;
57828;SDS011;43657;52.698;6.314;2022-11-27T15:52:23;11.02;;;8.93;;
57828;SDS011;43657;52.698;6.314;2022-11-27T15:54:49;15.50;;;9.55;;
57828;SDS011;43657;52.698;6.314;2022-11-27T15:57:15;12.75;;;9.15;;
57828;SDS011;43657;52.698;6.314;2022-11-27T15:59:44;11.85;;;9.88;;
57828;SDS011;43657;52.698;6.314;2022-11-27T16:02:10;13.68;;;9.43;;
57828;SDS011;43657;52.698;6.314;2022-11-27T16:04:36;12.93;;;9.38;;
57828;SDS011;43657;52.698;6.314;2022-11-27T16:07:02;14.35;;;9.90;;
57828;SDS011;43657;52.698;6.314;2022-11-27T16:09:28;13.30;;;10.00;;
57828;SDS011;43657;52.698;6.314;2022-11-27T16:11:54;14.15;;;10.45;;
57828;SDS011;43657;52.698;6.314;2022-11-27T16:14:21;14.57;;;10.25;;
57828;SDS011;43657;52.698;6.314;2022-11-27T16:16:47;17.05;;;10.30;;
57828;SDS011;43657;52.698;6.314;2022-11-27T16:19:16;13.23;;;10.10;;
57828;SDS011;43657;52.698;6.314;2022-11-27T16:21:42;14.07;;;10.50;;
57828;SDS011;43657;52.698;6.314;2022-11-27T16:24:09;15.25;;;11.98;;
57828;SDS011;43657;52.698;6.314;2022-11-27T16:26:37;14.95;;;11.50;;
57828;SDS011;43657;52.698;6.314;2022-11-27T16:29:07;13.25;;;10.98;;
57828;SDS011;43657;52.698;6.314;2022-11-27T16:31:34;14.90;;;11.25;;
57828;SDS011;43657;52.698;6.314;2022-11-27T16:34:00;18.05;;;12.13;;
57828;SDS011;43657;52.698;6.314;2022-11-27T16:36:30;18.35;;;12.05;;
57828;SDS011;43657;52.698;6.314;2022-11-27T16:38:56;15.48;;;11.05;;
57828;SDS011;43657;52.698;6.314;2022-11-27T16:41:22;16.00;;;11.25;;
57828;SDS011;43657;52.698;6.314;2022-11-27T16:43:49;16.48;;;12.15;;
57828;SDS011;43657;52.698;6.314;2022-11-27T16:46:22;15.27;;;10.93;;
57828;SDS011;43657;52.698;6.314;2022-11-27T16:48:50;14.15;;;11.10;;
57828;SDS011;43657;52.698;6.314;2022-11-27T16:51:26;15.50;;;11.95;;
57828;SDS011;43657;52.698;6.314;2022-11-27T16:53:54;15.35;;;11.93;;
57828;SDS011;43657;52.698;6.314;2022-11-27T16:56:23;16.30;;;11.18;;